createdAt,value
2022-08-02T00:03:53.680Z,0.70
2022-08-02T00:09:01.619Z,0.75
2022-08-02T00:14:06.863Z,0.70
2022-08-02T00:19:11.698Z,0.63
2022-08-02T00:24:30.078Z,0.80
2022-08-02T00:29:35.775Z,0.70
2022-08-02T00:34:47.685Z,0.80
2022-08-02T00:39:55.086Z,0.75
2022-08-02T00:44:59.941Z,0.80
2022-08-02T00:50:04.939Z,0.70
2022-08-02T00:55:12.721Z,0.70
2022-08-02T01:00:22.548Z,0.57
2022-08-02T01:05:27.506Z,0.85
2022-08-02T01:10:35.576Z,0.77
2022-08-02T01:15:55.835Z,0.80
2022-08-02T01:21:26.687Z,0.80
2022-08-02T01:26:44.549Z,0.67
2022-08-02T01:32:00.337Z,0.80
2022-08-02T01:37:14.092Z,0.80
2022-08-02T01:42:21.200Z,0.80
2022-08-02T01:47:32.393Z,0.70
2022-08-02T01:52:42.379Z,1.02
2022-08-02T01:58:01.887Z,0.90
2022-08-02T02:03:18.799Z,0.95
2022-08-02T02:08:29.502Z,0.80
2022-08-02T02:13:35.169Z,0.80
2022-08-02T02:18:45.959Z,0.90
2022-08-02T02:23:51.534Z,1.10
2022-08-02T02:28:58.766Z,1.00
2022-08-02T02:34:17.362Z,1.08
2022-08-02T02:39:27.277Z,1.00
2022-08-02T02:44:36.080Z,1.05
2022-08-02T02:49:46.010Z,0.93
2022-08-02T02:54:53.588Z,1.65
2022-08-02T02:59:59.230Z,1.00
2022-08-02T03:05:07.630Z,1.00
2022-08-02T03:10:14.976Z,1.00
2022-08-02T03:15:21.242Z,1.00
2022-08-02T03:20:28.837Z,0.90
2022-08-02T03:25:34.402Z,1.15
2022-08-02T03:30:40.427Z,1.10
2022-08-02T03:35:50.658Z,1.00
2022-08-02T03:40:58.044Z,1.27
2022-08-02T03:46:04.312Z,1.20
2022-08-02T03:51:12.456Z,1.10
2022-08-02T03:56:18.972Z,1.30
2022-08-02T04:01:24.636Z,1.30
2022-08-02T04:06:32.872Z,1.20
2022-08-02T04:11:38.176Z,1.13
2022-08-02T04:16:46.088Z,1.10
2022-08-02T04:21:56.251Z,1.20
2022-08-02T04:27:06.369Z,1.30
2022-08-02T04:32:14.341Z,1.20
2022-08-02T04:37:22.739Z,1.20
2022-08-02T04:42:28.835Z,1.40
2022-08-02T04:48:02.280Z,1.50
2022-08-02T04:53:02.578Z,1.50
2022-08-02T04:58:37.021Z,1.40
2022-08-02T05:03:33.000Z,1.40
2022-08-02T05:08:41.030Z,1.40
2022-08-02T05:13:59.037Z,1.73
2022-08-02T05:19:04.509Z,1.55
2022-08-02T05:24:12.599Z,1.52
2022-08-02T05:29:17.417Z,1.50
2022-08-02T05:34:22.233Z,1.50
2022-08-02T05:39:31.723Z,1.52
2022-08-02T05:44:37.849Z,1.33
2022-08-02T05:49:43.298Z,1.20
2022-08-02T05:55:00.617Z,1.40
2022-08-02T06:00:10.600Z,1.40
2022-08-02T06:05:22.750Z,1.40
2022-08-02T06:10:31.947Z,1.25
2022-08-02T06:15:53.464Z,1.40
2022-08-02T06:22:30.607Z,1.50
2022-08-02T06:26:30.530Z,1.20
2022-08-02T06:31:35.617Z,1.30
2022-08-02T06:36:45.361Z,1.30
2022-08-02T06:42:10.897Z,1.00
2022-08-02T06:47:22.565Z,1.20
2022-08-02T06:52:30.540Z,1.20
2022-08-02T06:57:38.912Z,1.10
2022-08-02T07:02:43.999Z,1.02
2022-08-02T07:07:49.263Z,1.02
2022-08-02T07:12:59.740Z,1.23
2022-08-02T07:18:05.097Z,1.35
2022-08-02T07:23:10.166Z,1.10
2022-08-02T07:28:23.693Z,1.05
2022-08-02T07:33:38.666Z,1.00
2022-08-02T07:38:45.538Z,1.00
2022-08-02T07:43:53.722Z,1.13
2022-08-02T07:48:58.590Z,1.10
2022-08-02T07:54:04.859Z,0.90
2022-08-02T07:59:13.639Z,0.98
2022-08-02T08:04:18.664Z,0.90
2022-08-02T08:09:24.053Z,0.80
2022-08-02T08:14:31.577Z,0.88
2022-08-02T08:19:50.527Z,1.10
2022-08-02T08:24:57.088Z,0.90
2022-08-02T08:30:05.006Z,0.93
2022-08-02T08:35:10.935Z,1.10
2022-08-02T08:40:19.488Z,0.88
2022-08-02T08:45:27.375Z,0.90
2022-08-02T08:50:37.228Z,1.00
2022-08-02T08:55:42.978Z,1.05
2022-08-02T09:00:50.640Z,1.13
2022-08-02T09:06:01.062Z,0.82
2022-08-02T09:11:15.403Z,1.00
2022-08-02T09:16:31.047Z,0.90
2022-08-02T09:21:41.108Z,0.82
2022-08-02T09:26:47.347Z,1.10
2022-08-02T09:31:55.237Z,0.70
2022-08-02T09:37:00.129Z,0.80
2022-08-02T09:42:11.894Z,0.77
2022-08-02T09:52:37.052Z,0.93
2022-08-02T09:57:51.142Z,1.00
2022-08-02T10:03:21.660Z,1.10
2022-08-02T10:08:28.732Z,1.00
2022-08-02T10:13:35.587Z,1.00
2022-08-02T10:18:43.074Z,0.90
2022-08-02T10:23:49.265Z,0.90
2022-08-02T10:28:56.821Z,0.90
2022-08-02T10:34:10.078Z,0.82
2022-08-02T10:39:15.265Z,0.80
2022-08-02T10:44:25.303Z,0.90
2022-08-02T10:49:40.612Z,0.80
2022-08-02T10:54:50.408Z,0.65
2022-08-02T11:00:05.406Z,0.60
2022-08-02T11:05:43.207Z,0.68
2022-08-02T11:10:48.617Z,0.93
2022-08-02T11:16:01.414Z,0.63
2022-08-02T11:21:28.539Z,0.65
2022-08-02T11:26:48.240Z,0.60
2022-08-02T11:31:53.486Z,0.70
2022-08-02T11:37:03.995Z,0.70
2022-08-02T11:42:09.147Z,0.70
2022-08-02T11:47:14.332Z,0.60
2022-08-02T11:52:22.227Z,0.50
2022-08-02T11:57:27.130Z,0.47
2022-08-02T12:02:35.894Z,0.70
2022-08-02T12:07:45.699Z,0.55
2022-08-02T12:12:53.589Z,0.52
2022-08-02T12:18:11.778Z,0.68
2022-08-02T12:23:19.814Z,0.70
2022-08-02T12:28:27.671Z,0.50
2022-08-02T12:33:49.582Z,0.60
2022-08-02T12:38:59.100Z,0.63
2022-08-02T12:44:05.121Z,0.43
2022-08-02T12:49:19.277Z,0.50
2022-08-02T12:54:32.166Z,0.38
2022-08-02T12:59:40.688Z,0.45
2022-08-02T13:04:49.933Z,0.57
2022-08-02T13:10:00.255Z,0.60
2022-08-02T13:15:12.375Z,0.50
2022-08-02T13:20:42.839Z,0.43
2022-08-02T13:25:54.993Z,0.70
2022-08-02T13:31:14.962Z,0.60
2022-08-02T13:36:25.916Z,0.80
2022-08-02T13:41:35.282Z,0.50
2022-08-02T13:46:45.270Z,0.60
2022-08-02T13:51:51.713Z,0.60
2022-08-02T13:56:59.472Z,0.50
2022-08-02T14:02:07.305Z,0.52
2022-08-02T14:07:12.352Z,0.50
2022-08-02T14:12:19.970Z,0.60
2022-08-02T14:17:24.924Z,0.47
2022-08-02T14:22:30.382Z,0.40
2022-08-02T14:27:39.540Z,0.35
2022-08-02T14:32:45.613Z,0.50
2022-08-02T14:37:55.443Z,0.50
2022-08-02T14:43:04.745Z,0.40
2022-08-02T14:48:09.660Z,0.50
2022-08-02T14:53:15.073Z,0.57
2022-08-02T14:58:22.680Z,0.28
2022-08-02T15:03:29.794Z,0.43
2022-08-02T15:14:25.578Z,0.43
2022-08-02T15:19:57.696Z,0.50
2022-08-02T15:25:02.766Z,0.40
2022-08-02T15:30:11.246Z,0.30
2022-08-02T15:35:16.846Z,0.50
2022-08-02T15:40:21.882Z,0.30
2022-08-02T15:45:32.154Z,0.30
2022-08-02T15:50:37.250Z,0.40
2022-08-02T15:55:52.777Z,0.32
2022-08-02T16:01:10.555Z,0.30
2022-08-02T16:06:16.258Z,0.43
2022-08-02T16:11:21.759Z,0.40
2022-08-02T16:16:30.974Z,0.50
2022-08-02T16:21:36.091Z,0.30
2022-08-02T16:26:41.452Z,0.32
2022-08-02T16:31:49.715Z,0.40
2022-08-02T16:36:54.888Z,0.30
2022-08-02T16:42:00.137Z,0.40
2022-08-02T16:47:10.351Z,0.30
2022-08-02T16:52:15.441Z,0.20
2022-08-02T16:57:20.752Z,0.38
2022-08-02T17:02:28.594Z,0.50
2022-08-02T17:08:15.830Z,0.30
2022-08-02T17:13:10.882Z,0.20
2022-08-02T17:18:20.207Z,0.30
2022-08-02T17:23:47.036Z,0.30
2022-08-02T17:29:15.163Z,0.50
2022-08-02T17:34:26.935Z,0.40
2022-08-02T17:39:34.006Z,0.40
2022-08-02T17:44:39.631Z,0.30
2022-08-02T17:49:48.015Z,0.30
2022-08-02T17:54:54.064Z,0.20
2022-08-02T18:00:03.984Z,0.30
2022-08-02T18:05:15.316Z,0.40
2022-08-02T18:10:20.309Z,0.40
2022-08-02T18:15:25.971Z,0.50
2022-08-02T18:20:33.775Z,0.50
2022-08-02T18:25:45.863Z,0.40
2022-08-02T18:31:06.456Z,0.30
2022-08-02T18:36:24.396Z,0.40
2022-08-02T18:41:30.114Z,0.40
2022-08-02T18:46:40.199Z,0.30
2022-08-02T18:51:51.384Z,0.20
2022-08-02T18:56:56.648Z,0.50
2022-08-02T19:02:02.646Z,0.50
2022-08-02T19:07:10.256Z,0.30
2022-08-02T19:12:27.880Z,0.40
2022-08-02T19:17:55.243Z,0.40
2022-08-02T19:23:05.655Z,0.40
2022-08-02T19:28:14.877Z,0.38
2022-08-02T19:33:24.875Z,0.35
2022-08-02T19:38:49.292Z,0.38
2022-08-02T19:44:23.517Z,0.30
2022-08-02T19:49:40.651Z,0.30
2022-08-02T19:54:54.478Z,0.32
2022-08-02T20:00:21.672Z,0.35
2022-08-02T20:05:27.282Z,0.32
2022-08-02T20:10:33.539Z,0.38
2022-08-02T20:15:56.439Z,0.50
2022-08-02T20:21:02.281Z,0.65
2022-08-02T20:26:09.120Z,0.40
2022-08-02T20:31:16.948Z,0.52
2022-08-02T20:36:23.551Z,0.40
2022-08-02T20:41:37.122Z,0.43
2022-08-02T20:46:53.680Z,0.50
2022-08-02T20:51:58.718Z,0.60
2022-08-02T20:57:03.702Z,0.50
2022-08-02T21:02:13.008Z,0.43
2022-08-02T21:07:22.201Z,0.40
2022-08-02T21:12:29.933Z,0.55
2022-08-02T21:17:48.915Z,0.43
2022-08-02T21:23:19.829Z,0.43
2022-08-02T21:28:43.402Z,0.40
2022-08-02T21:33:57.827Z,0.30
2022-08-02T21:39:05.829Z,0.30
2022-08-02T21:44:15.576Z,0.40
2022-08-02T21:49:27.094Z,0.50
2022-08-02T21:54:45.895Z,0.43
2022-08-02T21:59:55.443Z,0.43
2022-08-02T22:05:03.471Z,0.50
2022-08-02T22:10:09.703Z,0.40
2022-08-02T22:15:14.926Z,0.50
2022-08-02T22:20:23.069Z,0.35
2022-08-02T22:25:37.376Z,0.40
2022-08-02T22:30:42.979Z,0.30
2022-08-02T22:35:51.753Z,0.30
2022-08-02T22:40:57.137Z,0.30
2022-08-02T22:46:02.088Z,0.38
2022-08-02T22:51:09.785Z,0.40
2022-08-02T22:56:17.602Z,0.30
2022-08-02T23:01:22.646Z,0.30
2022-08-02T23:06:30.133Z,0.30
2022-08-02T23:11:34.959Z,0.40
2022-08-02T23:16:52.248Z,0.50
2022-08-02T23:22:01.319Z,0.30
2022-08-02T23:27:07.951Z,0.37
2022-08-02T23:32:13.597Z,0.40
2022-08-02T23:37:21.351Z,0.50
2022-08-02T23:42:26.635Z,0.50
2022-08-02T23:47:31.580Z,0.45
2022-08-02T23:52:39.080Z,0.52
2022-08-02T23:57:44.632Z,0.60
